createdAt,value
2018-12-14T00:00:26.326Z,13.10
2018-12-14T00:02:54.062Z,12.70
2018-12-14T00:05:21.986Z,10.47
2018-12-14T00:07:49.637Z,10.72
2018-12-14T00:10:17.711Z,12.57
2018-12-14T00:12:45.643Z,12.40
2018-12-14T00:15:13.561Z,10.50
2018-12-14T00:17:41.301Z,10.40
2018-12-14T00:20:09.152Z,9.33
2018-12-14T00:22:36.860Z,14.00
2018-12-14T00:25:05.284Z,13.13
2018-12-14T00:27:33.022Z,14.60
2018-12-14T00:30:00.801Z,14.07
2018-12-14T00:32:28.880Z,15.43
2018-12-14T00:34:56.672Z,10.37
2018-12-14T00:37:24.339Z,12.07
2018-12-14T00:39:52.240Z,13.77
2018-12-14T00:42:20.110Z,14.73
2018-12-14T00:44:47.838Z,15.00
2018-12-14T00:47:15.418Z,15.10
2018-12-14T00:49:43.193Z,12.53
2018-12-14T00:52:10.989Z,12.13
2018-12-14T00:54:38.547Z,12.93
2018-12-14T00:57:06.194Z,12.70
2018-12-14T00:59:33.898Z,10.50
2018-12-14T01:02:01.557Z,11.63
2018-12-14T01:04:29.238Z,19.30
2018-12-14T01:06:56.909Z,13.50
2018-12-14T01:09:24.609Z,12.03
2018-12-14T01:11:58.072Z,12.30
2018-12-14T01:14:22.137Z,15.50
2018-12-14T01:16:49.813Z,11.33
2018-12-14T01:19:17.472Z,12.57
2018-12-14T01:21:45.092Z,12.77
2018-12-14T01:24:12.753Z,14.30
2018-12-14T01:26:40.423Z,11.77
2018-12-14T01:29:08.105Z,11.80
2018-12-14T01:31:35.793Z,10.93
2018-12-14T01:34:03.649Z,15.73
2018-12-14T01:36:31.255Z,11.97
2018-12-14T01:38:58.952Z,13.70
2018-12-14T01:41:26.601Z,15.90
2018-12-14T01:43:54.309Z,11.20
2018-12-14T01:46:22.070Z,13.13
2018-12-14T01:48:49.711Z,14.23
2018-12-14T01:51:17.479Z,15.63
2018-12-14T01:53:45.178Z,11.33
2018-12-14T01:56:12.830Z,15.80
2018-12-14T01:58:40.483Z,12.30
2018-12-14T02:01:08.164Z,15.33
2018-12-14T02:03:35.813Z,12.20
2018-12-14T02:06:03.492Z,12.67
2018-12-14T02:08:31.124Z,12.00
2018-12-14T02:10:58.853Z,12.23
2018-12-14T02:13:26.521Z,13.57
2018-12-14T02:15:54.285Z,11.43
2018-12-14T02:18:22.033Z,15.90
2018-12-14T02:20:49.717Z,12.57
2018-12-14T02:23:18.173Z,12.73
2018-12-14T02:25:45.889Z,14.63
2018-12-14T02:28:13.623Z,10.07
2018-12-14T02:30:43.213Z,14.40
2018-12-14T02:33:10.992Z,12.77
2018-12-14T02:35:38.784Z,13.50
2018-12-14T02:38:06.525Z,12.13
2018-12-14T02:40:34.219Z,11.57
2018-12-14T02:43:01.936Z,11.50
2018-12-14T02:45:29.693Z,10.30
2018-12-14T02:47:57.437Z,10.72
2018-12-14T02:50:25.166Z,13.73
2018-12-14T02:52:52.842Z,12.37
2018-12-14T02:55:20.710Z,12.77
2018-12-14T02:57:48.374Z,10.97
2018-12-14T03:00:16.031Z,12.30
2018-12-14T03:02:43.681Z,11.97
2018-12-14T03:05:11.529Z,12.27
2018-12-14T03:07:39.250Z,12.90
2018-12-14T03:10:07.537Z,17.37
2018-12-14T03:12:35.135Z,11.60
2018-12-14T03:15:03.186Z,13.63
2018-12-14T03:17:30.841Z,13.80
2018-12-14T03:19:58.773Z,14.23
2018-12-14T03:22:26.490Z,11.60
2018-12-14T03:24:54.225Z,15.70
2018-12-14T03:27:21.905Z,13.47
2018-12-14T03:29:49.613Z,13.40
2018-12-14T03:32:17.503Z,16.40
2018-12-14T03:34:45.148Z,12.67
2018-12-14T03:37:12.824Z,14.20
2018-12-14T03:39:40.481Z,12.10
2018-12-14T03:42:08.186Z,18.77
2018-12-14T03:44:35.845Z,11.47
2018-12-14T03:47:03.579Z,13.13
2018-12-14T03:49:31.305Z,13.20
2018-12-14T03:51:58.945Z,13.40
2018-12-14T03:54:26.564Z,13.90
2018-12-14T03:56:54.405Z,12.83
2018-12-14T03:59:22.073Z,13.80
2018-12-14T04:01:49.792Z,15.30
2018-12-14T04:04:17.473Z,12.07
2018-12-14T04:06:45.151Z,15.50
2018-12-14T04:09:12.828Z,12.40
2018-12-14T04:11:40.591Z,14.40
2018-12-14T04:14:08.149Z,14.13
2018-12-14T04:16:35.842Z,12.03
2018-12-14T04:19:03.662Z,15.37
2018-12-14T04:21:31.342Z,13.67
2018-12-14T04:23:59.018Z,13.60
2018-12-14T04:26:26.671Z,14.93
2018-12-14T04:28:54.354Z,17.53
2018-12-14T04:31:22.030Z,12.13
2018-12-14T04:33:49.733Z,13.63
2018-12-14T04:36:17.417Z,11.03
2018-12-14T04:38:45.274Z,12.10
2018-12-14T04:41:13.037Z,12.07
2018-12-14T04:43:40.746Z,13.53
2018-12-14T04:46:08.490Z,14.00
2018-12-14T04:48:36.157Z,12.77
2018-12-14T04:51:03.916Z,14.70
2018-12-14T04:53:31.537Z,13.10
2018-12-14T04:55:59.213Z,11.50
2018-12-14T04:58:26.887Z,13.60
2018-12-14T05:00:54.598Z,14.80
2018-12-14T05:03:22.304Z,11.37
2018-12-14T05:05:49.961Z,12.90
2018-12-14T05:08:17.597Z,12.60
2018-12-14T05:10:45.331Z,14.10
2018-12-14T05:13:12.989Z,17.65
2018-12-14T05:15:40.641Z,11.53
2018-12-14T05:18:08.338Z,11.87
2018-12-14T05:20:36.017Z,12.27
2018-12-14T05:23:03.705Z,13.83
2018-12-14T05:25:31.381Z,13.03
2018-12-14T05:27:59.153Z,12.23
2018-12-14T05:30:27.013Z,13.30
2018-12-14T05:32:55.038Z,13.60
2018-12-14T05:35:22.753Z,13.57
2018-12-14T05:37:50.397Z,14.60
2018-12-14T05:40:18.049Z,13.93
2018-12-14T05:42:45.685Z,13.40
2018-12-14T05:45:13.464Z,14.27
2018-12-14T05:47:41.263Z,15.30
2018-12-14T05:50:08.889Z,16.00
2018-12-14T05:52:36.542Z,14.60
2018-12-14T05:55:05.049Z,13.70
2018-12-14T05:57:32.808Z,15.13
2018-12-14T06:00:00.469Z,10.93
2018-12-14T06:02:28.190Z,13.50
2018-12-14T06:04:55.813Z,15.57
2018-12-14T06:07:23.540Z,13.90
2018-12-14T06:09:51.170Z,11.80
2018-12-14T06:12:19.085Z,11.57
2018-12-14T06:14:46.893Z,16.40
2018-12-14T06:17:14.590Z,15.67
2018-12-14T06:19:42.262Z,14.43
2018-12-14T06:22:09.936Z,13.97
2018-12-14T06:24:37.613Z,15.90
2018-12-14T06:27:05.242Z,14.43
2018-12-14T06:29:34.046Z,12.70
2018-12-14T06:32:01.707Z,14.27
2018-12-14T06:34:29.395Z,12.57
2018-12-14T06:36:57.349Z,13.83
2018-12-14T06:39:25.140Z,16.60
2018-12-14T06:41:53.130Z,16.02
2018-12-14T06:44:20.753Z,15.48
2018-12-14T06:46:48.341Z,14.80
2018-12-14T06:49:16.105Z,15.53
2018-12-14T06:51:43.869Z,12.30
2018-12-14T06:54:11.503Z,12.75
2018-12-14T06:56:39.228Z,14.43
2018-12-14T06:59:06.913Z,13.83
2018-12-14T07:01:34.642Z,15.10
2018-12-14T07:04:02.390Z,12.23
2018-12-14T07:06:30.057Z,11.57
2018-12-14T07:08:57.773Z,14.03
2018-12-14T07:11:25.415Z,14.07
2018-12-14T07:13:53.103Z,17.73
2018-12-14T07:16:20.876Z,15.67
2018-12-14T07:18:48.397Z,13.17
2018-12-14T07:21:16.192Z,14.97
2018-12-14T07:23:43.872Z,17.30
2018-12-14T07:26:11.589Z,17.03
2018-12-14T07:28:39.346Z,16.77
2018-12-14T07:31:07.021Z,17.20
2018-12-14T07:33:34.697Z,16.50
2018-12-14T07:36:02.538Z,14.57
2018-12-14T07:38:30.260Z,17.33
2018-12-14T07:40:58.016Z,13.83
2018-12-14T07:43:28.448Z,15.90
2018-12-14T07:45:55.445Z,20.80
2018-12-14T07:48:23.445Z,15.50
2018-12-14T07:50:51.101Z,17.27
2018-12-14T07:53:18.857Z,14.33
2018-12-14T07:55:46.559Z,13.30
2018-12-14T07:58:14.281Z,15.68
2018-12-14T08:00:41.882Z,15.75
2018-12-14T08:03:09.561Z,13.20
2018-12-14T08:05:37.245Z,15.28
2018-12-14T08:08:04.965Z,16.15
2018-12-14T08:10:32.892Z,12.98
2018-12-14T08:13:00.741Z,16.52
2018-12-14T08:15:28.722Z,12.58
2018-12-14T08:17:56.513Z,10.40
2018-12-14T08:20:24.181Z,15.88
2018-12-14T08:22:51.833Z,14.70
2018-12-14T08:25:19.585Z,13.30
2018-12-14T08:27:47.293Z,13.55
2018-12-14T08:30:15.298Z,12.13
2018-12-14T08:32:42.937Z,14.28
2018-12-14T08:35:10.642Z,15.25
2018-12-14T08:37:38.350Z,12.03
2018-12-14T08:40:06.861Z,16.50
2018-12-14T08:42:34.465Z,11.70
2018-12-14T08:45:02.446Z,18.52
2018-12-14T08:47:30.146Z,13.48
2018-12-14T08:49:57.851Z,14.43
2018-12-14T08:52:25.522Z,17.87
2018-12-14T08:54:53.260Z,14.70
2018-12-14T08:57:21.021Z,16.12
2018-12-14T08:59:48.703Z,12.85
2018-12-14T09:02:16.389Z,14.35
2018-12-14T09:04:44.137Z,15.40
2018-12-14T09:07:11.889Z,13.57
2018-12-14T09:09:39.489Z,15.77
2018-12-14T09:12:07.217Z,17.10
2018-12-14T09:14:34.874Z,15.28
2018-12-14T09:17:02.472Z,12.40
2018-12-14T09:19:30.198Z,16.42
2018-12-14T09:21:57.930Z,10.80
2018-12-14T09:24:26.326Z,12.53
2018-12-14T09:26:54.017Z,13.27
2018-12-14T09:29:23.280Z,11.23
2018-12-14T09:31:51.192Z,12.47
2018-12-14T09:34:18.847Z,14.90
2018-12-14T09:36:46.478Z,16.27
2018-12-14T09:39:14.217Z,15.30
2018-12-14T09:41:41.955Z,12.15
2018-12-14T09:44:09.668Z,14.85
2018-12-14T09:46:37.433Z,15.27
2018-12-14T09:49:05.578Z,12.03
2018-12-14T09:51:33.324Z,17.90
2018-12-14T09:54:01.173Z,12.97
2018-12-14T09:56:28.825Z,14.33
2018-12-14T09:58:56.609Z,12.28
2018-12-14T10:01:24.289Z,14.33
2018-12-14T10:03:52.327Z,14.03
2018-12-14T10:06:20.066Z,12.50
2018-12-14T10:08:47.765Z,15.72
2018-12-14T10:11:15.816Z,14.50
2018-12-14T10:13:43.658Z,11.05
2018-12-14T10:16:11.731Z,20.40
2018-12-14T10:18:39.630Z,13.78
2018-12-14T10:21:07.581Z,13.30
2018-12-14T10:23:36.014Z,15.70
2018-12-14T10:26:03.785Z,12.67
2018-12-14T10:28:31.435Z,15.63
2018-12-14T10:30:59.143Z,13.37
2018-12-14T10:33:26.774Z,16.17
2018-12-14T10:35:54.511Z,19.73
2018-12-14T10:38:22.243Z,16.73
2018-12-14T10:40:49.970Z,16.48
2018-12-14T10:43:17.646Z,12.63
2018-12-14T10:45:45.429Z,14.00
2018-12-14T10:48:13.173Z,14.40
2018-12-14T10:50:40.762Z,13.77
2018-12-14T10:53:11.250Z,13.80
2018-12-14T10:55:39.291Z,13.97
2018-12-14T10:58:07.126Z,12.70
2018-12-14T11:00:40.599Z,15.93
2018-12-14T11:03:08.169Z,12.50
2018-12-14T11:05:36.050Z,13.23
2018-12-14T11:08:03.762Z,16.03
2018-12-14T11:10:31.555Z,15.83
2018-12-14T11:12:59.231Z,14.83
2018-12-14T11:15:26.985Z,14.00
2018-12-14T11:17:54.809Z,12.17
2018-12-14T11:20:22.506Z,14.80
2018-12-14T11:22:50.205Z,13.30
2018-12-14T11:25:17.889Z,15.77
2018-12-14T11:27:45.631Z,14.83
2018-12-14T11:30:13.395Z,14.73
2018-12-14T11:32:40.922Z,19.80
2018-12-14T11:35:08.631Z,16.10
2018-12-14T11:37:36.308Z,17.80
2018-12-14T11:40:05.427Z,21.40
2018-12-14T11:42:33.061Z,12.97
2018-12-14T11:45:00.733Z,16.97
2018-12-14T11:47:28.371Z,16.70
2018-12-14T11:49:56.049Z,19.40
2018-12-14T11:52:24.618Z,21.33
2018-12-14T11:54:52.301Z,25.43
2018-12-14T11:57:20.082Z,18.27
2018-12-14T11:59:47.764Z,16.17
2018-12-14T12:02:15.497Z,16.57
2018-12-14T12:04:43.277Z,15.87
2018-12-14T12:07:10.969Z,12.97
2018-12-14T12:09:38.661Z,16.87
2018-12-14T12:12:06.372Z,13.57
2018-12-14T12:14:34.041Z,13.30
2018-12-14T12:17:01.746Z,12.97
2018-12-14T12:19:29.476Z,15.90
2018-12-14T12:21:57.313Z,13.40
2018-12-14T12:24:24.926Z,13.17
2018-12-14T12:26:52.566Z,15.25
2018-12-14T12:29:20.323Z,12.10
2018-12-14T12:31:48.025Z,12.33
2018-12-14T12:39:15.938Z,11.27
2018-12-14T12:41:43.802Z,14.23
2018-12-14T12:44:11.478Z,12.37
2018-12-14T12:46:39.110Z,14.53
2018-12-14T12:49:06.786Z,14.20
2018-12-14T12:51:34.553Z,17.30
2018-12-14T12:54:03.339Z,10.10
2018-12-14T12:56:31.441Z,14.47
2018-12-14T12:58:59.110Z,17.70
2018-12-14T13:01:26.960Z,17.27
2018-12-14T13:03:54.637Z,17.67
2018-12-14T13:06:22.387Z,18.45
2018-12-14T13:08:50.022Z,15.53
2018-12-14T13:11:17.709Z,20.67
2018-12-14T13:13:45.442Z,13.32
2018-12-14T13:16:13.215Z,16.20
2018-12-14T13:18:40.827Z,15.48
2018-12-14T13:21:08.532Z,13.50
2018-12-14T13:23:36.502Z,16.00
2018-12-14T13:26:04.370Z,16.50
2018-12-14T13:28:32.341Z,18.10
2018-12-14T13:30:59.994Z,15.97
2018-12-14T13:33:27.949Z,13.30
2018-12-14T13:35:55.905Z,14.60
2018-12-14T13:38:23.621Z,14.63
2018-12-14T13:40:51.244Z,12.30
2018-12-14T13:43:18.941Z,14.20
2018-12-14T13:45:46.625Z,13.90
2018-12-14T13:48:14.462Z,17.30
2018-12-14T13:50:42.199Z,12.97
2018-12-14T13:53:09.893Z,16.87
2018-12-14T13:55:37.517Z,13.60
2018-12-14T13:58:05.314Z,12.77
2018-12-14T14:00:33.024Z,12.67
2018-12-14T14:03:00.777Z,14.43
2018-12-14T14:05:28.697Z,18.30
2018-12-14T14:07:56.418Z,14.90
2018-12-14T14:10:24.141Z,14.70
2018-12-14T14:12:51.820Z,16.93
2018-12-14T14:15:20.986Z,16.87
2018-12-14T14:17:48.877Z,18.37
2018-12-14T14:20:16.555Z,15.50
2018-12-14T14:22:44.336Z,14.93
2018-12-14T14:25:17.344Z,14.73
2018-12-14T14:27:41.765Z,15.23
2018-12-14T14:30:09.739Z,16.73
2018-12-14T14:32:37.583Z,14.50
2018-12-14T14:35:06.013Z,12.60
2018-12-14T14:37:33.694Z,13.90
2018-12-14T14:40:01.372Z,15.80
2018-12-14T14:42:29.053Z,14.30
2018-12-14T14:44:59.706Z,13.77
2018-12-14T14:47:26.676Z,16.97
2018-12-14T14:49:54.394Z,13.60
2018-12-14T14:52:22.065Z,14.07
2018-12-14T14:54:50.030Z,12.50
2018-12-14T14:57:17.774Z,18.07
2018-12-14T14:59:45.485Z,18.43
2018-12-14T15:02:13.079Z,25.23
2018-12-14T15:04:40.772Z,16.80
2018-12-14T15:07:08.427Z,13.17
2018-12-14T15:09:36.117Z,15.67
2018-12-14T15:12:03.765Z,13.40
2018-12-14T15:14:31.529Z,11.10
2018-12-14T15:16:59.214Z,14.40
2018-12-14T15:19:26.978Z,15.20
2018-12-14T15:21:54.693Z,14.60
2018-12-14T15:24:22.412Z,16.97
2018-12-14T15:26:50.045Z,16.13
2018-12-14T15:29:17.675Z,15.20
2018-12-14T15:31:45.712Z,14.57
2018-12-14T15:34:14.508Z,22.33
2018-12-14T15:36:42.374Z,20.03
2018-12-14T15:39:10.193Z,16.70
2018-12-14T15:41:37.757Z,14.00
2018-12-14T15:44:05.462Z,13.77
2018-12-14T15:46:33.145Z,13.40
2018-12-14T15:49:00.854Z,14.43
2018-12-14T15:51:28.518Z,17.50
2018-12-14T15:53:56.503Z,13.10
2018-12-14T15:56:24.233Z,12.68
2018-12-14T15:58:51.937Z,17.48
2018-12-14T16:01:19.646Z,14.90
2018-12-14T16:03:47.415Z,12.47
2018-12-14T16:06:15.105Z,12.57
2018-12-14T16:08:42.861Z,17.02
2018-12-14T16:11:10.589Z,11.73
2018-12-14T16:13:38.194Z,14.73
2018-12-14T16:16:05.874Z,16.60
2018-12-14T16:18:33.572Z,13.00
2018-12-14T16:21:01.348Z,15.28
2018-12-14T16:23:29.145Z,19.80
2018-12-14T16:25:57.001Z,15.93
2018-12-14T16:28:24.726Z,14.40
2018-12-14T16:30:52.373Z,17.25
2018-12-14T16:33:20.054Z,14.40
2018-12-14T16:35:47.823Z,18.60
2018-12-14T16:38:15.537Z,17.33
2018-12-14T16:40:43.209Z,13.73
2018-12-14T16:43:11.393Z,13.53
2018-12-14T16:45:39.066Z,21.00
2018-12-14T16:48:06.743Z,15.27
2018-12-14T16:50:34.477Z,13.60
2018-12-14T16:53:02.285Z,14.10
2018-12-14T16:55:30.057Z,21.77
2018-12-14T16:57:57.949Z,16.60
2018-12-14T17:00:25.654Z,17.33
2018-12-14T17:02:53.660Z,22.07
2018-12-14T17:05:21.553Z,15.60
2018-12-14T17:07:49.345Z,13.93
2018-12-14T17:10:17.141Z,12.80
2018-12-14T17:12:44.883Z,17.20
2018-12-14T17:15:12.610Z,14.77
2018-12-14T17:17:40.260Z,15.33
2018-12-14T17:20:07.972Z,14.03
2018-12-14T17:22:35.697Z,17.53
2018-12-14T17:25:04.173Z,16.25
2018-12-14T17:27:31.867Z,17.87
2018-12-14T17:29:59.608Z,14.25
2018-12-14T17:32:27.389Z,12.53
2018-12-14T17:34:55.082Z,13.30
2018-12-14T17:37:23.125Z,13.48
2018-12-14T17:39:50.823Z,14.40
2018-12-14T17:42:18.540Z,17.25
2018-12-14T17:44:46.244Z,16.52
2018-12-14T17:47:13.917Z,14.97
2018-12-14T17:49:41.617Z,13.43
2018-12-14T17:52:09.273Z,16.40
2018-12-14T17:54:37.041Z,15.90
2018-12-14T17:57:04.861Z,15.57
2018-12-14T17:59:32.520Z,135.67
2018-12-14T18:02:00.145Z,60.27
2018-12-14T18:04:27.850Z,61.40
2018-12-14T18:06:55.506Z,46.13
2018-12-14T18:09:23.162Z,31.60
2018-12-14T18:11:50.818Z,44.77
2018-12-14T18:14:18.556Z,38.02
2018-12-14T18:16:46.235Z,48.30
2018-12-14T18:19:13.995Z,80.97
2018-12-14T18:21:41.673Z,23.47
2018-12-14T18:24:09.457Z,18.23
2018-12-14T18:26:37.169Z,24.97
2018-12-14T18:29:04.989Z,52.00
2018-12-14T18:31:32.701Z,134.15
2018-12-14T18:34:00.436Z,131.87
2018-12-14T18:36:28.093Z,37.77
2018-12-14T18:38:55.853Z,40.75
2018-12-14T18:41:23.475Z,27.73
2018-12-14T18:43:51.149Z,44.10
2018-12-14T18:46:18.885Z,255.43
2018-12-14T18:48:46.478Z,149.13
2018-12-14T18:51:14.200Z,77.73
2018-12-14T18:53:46.454Z,56.63
2018-12-14T18:56:14.118Z,42.67
2018-12-14T18:58:41.729Z,38.25
2018-12-14T19:01:09.770Z,30.65
2018-12-14T19:03:37.969Z,16.23
2018-12-14T19:06:05.773Z,20.23
2018-12-14T19:08:33.430Z,17.87
2018-12-14T19:11:01.065Z,17.20
2018-12-14T19:13:28.741Z,16.60
2018-12-14T19:15:59.599Z,16.27
2018-12-14T19:18:26.276Z,14.87
2018-12-14T19:20:54.033Z,11.70
2018-12-14T19:23:21.763Z,15.15
2018-12-14T19:25:49.330Z,17.03
2018-12-14T19:28:17.025Z,14.73
2018-12-14T19:30:44.651Z,14.17
2018-12-14T19:33:12.297Z,14.13
2018-12-14T19:35:40.079Z,10.40
2018-12-14T19:38:07.725Z,14.70
2018-12-14T19:40:35.357Z,18.10
2018-12-14T19:43:03.021Z,15.10
2018-12-14T19:45:30.761Z,13.77
2018-12-14T19:47:58.445Z,13.30
2018-12-14T19:50:26.142Z,12.77
2018-12-14T19:52:53.830Z,15.90
2018-12-14T19:55:21.565Z,13.23
2018-12-14T19:57:49.236Z,15.63
2018-12-14T20:00:17.009Z,13.58
2018-12-14T20:02:44.713Z,19.53
2018-12-14T20:05:12.553Z,13.30
2018-12-14T20:07:40.253Z,14.00
2018-12-14T20:10:08.318Z,18.67
2018-12-14T20:12:35.873Z,15.05
2018-12-14T20:15:04.361Z,15.30
2018-12-14T20:17:32.090Z,13.88
2018-12-14T20:19:59.846Z,14.83
2018-12-14T20:22:27.526Z,14.55
2018-12-14T20:24:55.230Z,14.60
2018-12-14T20:27:22.926Z,16.32
2018-12-14T20:29:50.666Z,23.73
2018-12-14T20:32:18.399Z,23.07
2018-12-14T20:34:46.154Z,17.98
2018-12-14T20:37:13.860Z,14.30
2018-12-14T20:39:41.562Z,15.35
2018-12-14T20:42:09.276Z,31.85
2018-12-14T20:44:36.981Z,37.63
2018-12-14T20:47:04.681Z,18.65
2018-12-14T20:49:32.386Z,17.07
2018-12-14T20:52:00.102Z,15.48
2018-12-14T20:54:27.798Z,13.48
2018-12-14T20:56:55.507Z,20.93
2018-12-14T20:59:23.162Z,15.13
2018-12-14T21:01:50.976Z,14.78
2018-12-14T21:04:18.691Z,15.40
2018-12-14T21:06:46.393Z,21.50
2018-12-14T21:09:14.069Z,17.48
2018-12-14T21:11:41.826Z,17.40
2018-12-14T21:14:09.678Z,28.83
2018-12-14T21:16:37.394Z,33.40
2018-12-14T21:19:05.313Z,21.15
2018-12-14T21:21:32.994Z,12.93
2018-12-14T21:24:00.721Z,22.27
2018-12-14T21:26:28.405Z,15.23
2018-12-14T21:28:56.109Z,25.05
2018-12-14T21:31:23.741Z,18.77
2018-12-14T21:33:51.425Z,18.17
2018-12-14T21:36:19.167Z,16.73
2018-12-14T21:38:46.915Z,14.77
2018-12-14T21:41:14.601Z,14.80
2018-12-14T21:43:42.317Z,13.50
2018-12-14T21:46:09.985Z,14.77
2018-12-14T21:48:37.742Z,15.77
2018-12-14T21:51:05.433Z,15.43
2018-12-14T21:53:33.189Z,14.98
2018-12-14T21:56:00.905Z,14.65
2018-12-14T21:58:28.777Z,14.98
2018-12-14T22:00:56.475Z,12.78
2018-12-14T22:03:24.235Z,14.33
2018-12-14T22:05:52.062Z,15.63
2018-12-14T22:08:19.778Z,14.90
2018-12-14T22:10:47.486Z,16.00
2018-12-14T22:13:15.037Z,30.85
2018-12-14T22:15:42.792Z,15.80
2018-12-14T22:18:10.440Z,17.77
2018-12-14T22:20:38.329Z,16.55
2018-12-14T22:23:06.096Z,15.83
2018-12-14T22:25:34.032Z,14.40
2018-12-14T22:28:01.793Z,18.00
2018-12-14T22:30:29.504Z,15.07
2018-12-14T22:32:57.189Z,15.97
2018-12-14T22:35:24.761Z,14.58
2018-12-14T22:37:52.787Z,15.67
2018-12-14T22:40:20.507Z,13.90
2018-12-14T22:42:48.184Z,12.57
2018-12-14T22:45:15.945Z,13.80
2018-12-14T22:47:43.555Z,14.83
2018-12-14T22:50:11.306Z,13.20
2018-12-14T22:52:39.165Z,12.75
2018-12-14T22:55:06.911Z,14.98
2018-12-14T22:57:34.563Z,14.37
2018-12-14T23:00:02.546Z,13.38
2018-12-14T23:02:30.291Z,15.08
2018-12-14T23:04:58.046Z,13.13
2018-12-14T23:07:25.907Z,14.53
2018-12-14T23:09:53.602Z,14.60
2018-12-14T23:12:21.369Z,13.87
2018-12-14T23:14:49.058Z,15.73
2018-12-14T23:17:16.694Z,14.18
2018-12-14T23:19:44.338Z,14.67
2018-12-14T23:22:12.058Z,17.47
2018-12-14T23:24:39.774Z,13.38
2018-12-14T23:27:07.479Z,11.10
2018-12-14T23:29:35.209Z,15.67
2018-12-14T23:32:02.923Z,11.97
2018-12-14T23:34:30.725Z,12.98
2018-12-14T23:36:58.455Z,12.40
2018-12-14T23:39:26.238Z,15.90
2018-12-14T23:41:54.063Z,15.00
2018-12-14T23:44:21.706Z,12.13
2018-12-14T23:46:49.576Z,13.90
2018-12-14T23:49:17.605Z,12.98
2018-12-14T23:51:45.247Z,13.70
2018-12-14T23:54:13.041Z,13.25
2018-12-14T23:56:40.781Z,13.22
2018-12-14T23:59:08.447Z,14.95
